sensor_id;sensor_type;location;lat;lon;timestamp;P1;durP1;ratioP1;P2;durP2;ratioP2
74926;SDS011;63488;48.092;-1.640;2023-06-22T00:00:17;5.10;;;3.00;;
74926;SDS011;63488;48.092;-1.640;2023-06-22T00:02:42;5.07;;;3.00;;
74926;SDS011;63488;48.092;-1.640;2023-06-22T00:05:08;8.07;;;3.10;;
74926;SDS011;63488;48.092;-1.640;2023-06-22T00:07:33;6.53;;;3.47;;
74926;SDS011;63488;48.092;-1.640;2023-06-22T00:09:58;5.18;;;3.08;;
74926;SDS011;63488;48.092;-1.640;2023-06-22T00:12:24;5.13;;;3.15;;
74926;SDS011;63488;48.092;-1.640;2023-06-22T00:14:49;5.95;;;2.78;;
74926;SDS011;63488;48.092;-1.640;2023-06-22T00:17:14;5.38;;;3.28;;
74926;SDS011;63488;48.092;-1.640;2023-06-22T00:19:40;5.85;;;3.30;;
74926;SDS011;63488;48.092;-1.640;2023-06-22T00:22:05;6.10;;;3.35;;
74926;SDS011;63488;48.092;-1.640;2023-06-22T00:24:31;6.20;;;3.17;;
74926;SDS011;63488;48.092;-1.640;2023-06-22T00:26:56;5.20;;;3.00;;
74926;SDS011;63488;48.092;-1.640;2023-06-22T00:29:21;7.88;;;3.15;;
74926;SDS011;63488;48.092;-1.640;2023-06-22T00:31:47;5.35;;;3.17;;
74926;SDS011;63488;48.092;-1.640;2023-06-22T00:34:12;6.38;;;3.30;;
74926;SDS011;63488;48.092;-1.640;2023-06-22T00:36:37;8.10;;;3.67;;
74926;SDS011;63488;48.092;-1.640;2023-06-22T00:39:05;8.20;;;3.47;;
74926;SDS011;63488;48.092;-1.640;2023-06-22T00:41:32;5.82;;;3.03;;
74926;SDS011;63488;48.092;-1.640;2023-06-22T00:43:57;5.00;;;3.28;;
74926;SDS011;63488;48.092;-1.640;2023-06-22T00:46:23;5.18;;;3.40;;
74926;SDS011;63488;48.092;-1.640;2023-06-22T00:48:50;5.97;;;3.22;;
74926;SDS011;63488;48.092;-1.640;2023-06-22T00:51:15;6.00;;;3.15;;
74926;SDS011;63488;48.092;-1.640;2023-06-22T00:53:41;7.10;;;3.13;;
74926;SDS011;63488;48.092;-1.640;2023-06-22T00:56:08;6.05;;;3.00;;
74926;SDS011;63488;48.092;-1.640;2023-06-22T00:58:34;6.43;;;3.45;;
74926;SDS011;63488;48.092;-1.640;2023-06-22T01:01:00;6.15;;;3.17;;
74926;SDS011;63488;48.092;-1.640;2023-06-22T01:03:26;7.53;;;3.35;;
74926;SDS011;63488;48.092;-1.640;2023-06-22T01:05:51;5.30;;;3.20;;
74926;SDS011;63488;48.092;-1.640;2023-06-22T01:10:45;9.32;;;3.80;;
74926;SDS011;63488;48.092;-1.640;2023-06-22T01:13:56;12.82;;;4.22;;
74926;SDS011;63488;48.092;-1.640;2023-06-22T01:18:33;7.18;;;3.28;;
74926;SDS011;63488;48.092;-1.640;2023-06-22T01:21:01;6.20;;;3.40;;
74926;SDS011;63488;48.092;-1.640;2023-06-22T01:23:31;7.28;;;3.30;;
74926;SDS011;63488;48.092;-1.640;2023-06-22T01:29:11;4.10;;;2.80;;
74926;SDS011;63488;48.092;-1.640;2023-06-22T01:31:13;5.22;;;3.10;;
74926;SDS011;63488;48.092;-1.640;2023-06-22T01:33:41;5.25;;;3.10;;
74926;SDS011;63488;48.092;-1.640;2023-06-22T01:36:06;8.50;;;3.45;;
74926;SDS011;63488;48.092;-1.640;2023-06-22T01:38:32;5.78;;;3.05;;
74926;SDS011;63488;48.092;-1.640;2023-06-22T01:40:58;8.65;;;3.42;;
74926;SDS011;63488;48.092;-1.640;2023-06-22T01:43:27;6.32;;;3.40;;
74926;SDS011;63488;48.092;-1.640;2023-06-22T01:45:54;8.40;;;3.70;;
74926;SDS011;63488;48.092;-1.640;2023-06-22T01:48:19;5.03;;;3.20;;
74926;SDS011;63488;48.092;-1.640;2023-06-22T01:50:45;5.75;;;3.13;;
74926;SDS011;63488;48.092;-1.640;2023-06-22T01:53:11;6.25;;;3.35;;
74926;SDS011;63488;48.092;-1.640;2023-06-22T01:55:37;5.32;;;3.33;;
74926;SDS011;63488;48.092;-1.640;2023-06-22T01:58:02;6.20;;;3.53;;
74926;SDS011;63488;48.092;-1.640;2023-06-22T02:00:28;5.80;;;3.15;;
74926;SDS011;63488;48.092;-1.640;2023-06-22T02:02:59;6.10;;;3.08;;
74926;SDS011;63488;48.092;-1.640;2023-06-22T02:05:26;5.80;;;3.30;;
74926;SDS011;63488;48.092;-1.640;2023-06-22T02:07:56;6.20;;;2.80;;
74926;SDS011;63488;48.092;-1.640;2023-06-22T02:10:23;5.50;;;3.00;;
74926;SDS011;63488;48.092;-1.640;2023-06-22T02:12:49;5.57;;;3.25;;
74926;SDS011;63488;48.092;-1.640;2023-06-22T02:15:15;4.13;;;3.15;;
74926;SDS011;63488;48.092;-1.640;2023-06-22T02:17:42;5.53;;;3.33;;
74926;SDS011;63488;48.092;-1.640;2023-06-22T02:20:13;6.93;;;3.50;;
74926;SDS011;63488;48.092;-1.640;2023-06-22T02:22:38;5.32;;;3.13;;
74926;SDS011;63488;48.092;-1.640;2023-06-22T02:25:04;6.57;;;3.83;;
74926;SDS011;63488;48.092;-1.640;2023-06-22T02:27:29;7.45;;;3.17;;
74926;SDS011;63488;48.092;-1.640;2023-06-22T02:29:55;4.75;;;2.97;;
74926;SDS011;63488;48.092;-1.640;2023-06-22T02:32:20;5.82;;;3.03;;
74926;SDS011;63488;48.092;-1.640;2023-06-22T02:34:45;4.57;;;3.10;;
74926;SDS011;63488;48.092;-1.640;2023-06-22T02:37:13;4.20;;;3.30;;
74926;SDS011;63488;48.092;-1.640;2023-06-22T02:39:39;5.28;;;2.83;;
74926;SDS011;63488;48.092;-1.640;2023-06-22T02:42:05;4.88;;;2.90;;
74926;SDS011;63488;48.092;-1.640;2023-06-22T02:44:30;5.60;;;2.83;;
74926;SDS011;63488;48.092;-1.640;2023-06-22T02:46:56;5.68;;;3.05;;
74926;SDS011;63488;48.092;-1.640;2023-06-22T02:49:21;6.60;;;3.08;;
74926;SDS011;63488;48.092;-1.640;2023-06-22T02:51:47;4.35;;;2.72;;
74926;SDS011;63488;48.092;-1.640;2023-06-22T02:54:12;5.40;;;2.90;;
74926;SDS011;63488;48.092;-1.640;2023-06-22T02:56:38;5.55;;;3.05;;
74926;SDS011;63488;48.092;-1.640;2023-06-22T02:59:05;5.25;;;3.30;;
74926;SDS011;63488;48.092;-1.640;2023-06-22T03:01:31;4.50;;;3.00;;
74926;SDS011;63488;48.092;-1.640;2023-06-22T03:06:26;5.20;;;2.83;;
74926;SDS011;63488;48.092;-1.640;2023-06-22T03:08:57;4.95;;;3.50;;
74926;SDS011;63488;48.092;-1.640;2023-06-22T03:11:23;3.67;;;2.60;;
74926;SDS011;63488;48.092;-1.640;2023-06-22T03:13:48;6.65;;;3.00;;
74926;SDS011;63488;48.092;-1.640;2023-06-22T03:16:14;6.00;;;2.70;;
74926;SDS011;63488;48.092;-1.640;2023-06-22T03:18:39;4.78;;;2.67;;
74926;SDS011;63488;48.092;-1.640;2023-06-22T03:21:05;4.93;;;2.97;;
74926;SDS011;63488;48.092;-1.640;2023-06-22T03:23:30;5.38;;;2.60;;
74926;SDS011;63488;48.092;-1.640;2023-06-22T03:25:55;4.20;;;3.10;;
74926;SDS011;63488;48.092;-1.640;2023-06-22T03:28:21;5.72;;;3.00;;
74926;SDS011;63488;48.092;-1.640;2023-06-22T03:30:46;4.25;;;3.00;;
74926;SDS011;63488;48.092;-1.640;2023-06-22T03:33:12;5.32;;;3.45;;
74926;SDS011;63488;48.092;-1.640;2023-06-22T03:35:37;3.30;;;2.60;;
74926;SDS011;63488;48.092;-1.640;2023-06-22T03:38:03;6.30;;;3.13;;
74926;SDS011;63488;48.092;-1.640;2023-06-22T03:40:28;5.72;;;2.95;;
74926;SDS011;63488;48.092;-1.640;2023-06-22T03:42:54;5.18;;;2.85;;
74926;SDS011;63488;48.092;-1.640;2023-06-22T03:45:19;5.75;;;2.90;;
74926;SDS011;63488;48.092;-1.640;2023-06-22T03:47:45;3.97;;;2.70;;
74926;SDS011;63488;48.092;-1.640;2023-06-22T03:50:10;5.85;;;3.35;;
74926;SDS011;63488;48.092;-1.640;2023-06-22T03:52:36;4.22;;;2.95;;
74926;SDS011;63488;48.092;-1.640;2023-06-22T03:55:01;4.35;;;2.60;;
74926;SDS011;63488;48.092;-1.640;2023-06-22T03:57:26;4.40;;;2.83;;
74926;SDS011;63488;48.092;-1.640;2023-06-22T03:59:53;5.10;;;2.83;;
74926;SDS011;63488;48.092;-1.640;2023-06-22T04:02:19;4.82;;;2.72;;
74926;SDS011;63488;48.092;-1.640;2023-06-22T04:04:44;5.60;;;2.88;;
74926;SDS011;63488;48.092;-1.640;2023-06-22T04:07:09;4.10;;;2.85;;
74926;SDS011;63488;48.092;-1.640;2023-06-22T04:09:35;3.55;;;2.58;;
74926;SDS011;63488;48.092;-1.640;2023-06-22T04:12:01;3.97;;;2.47;;
74926;SDS011;63488;48.092;-1.640;2023-06-22T04:14:26;7.25;;;3.00;;
74926;SDS011;63488;48.092;-1.640;2023-06-22T04:16:51;5.72;;;2.78;;
74926;SDS011;63488;48.092;-1.640;2023-06-22T04:19:17;3.90;;;2.45;;
74926;SDS011;63488;48.092;-1.640;2023-06-22T04:21:43;5.38;;;2.70;;
74926;SDS011;63488;48.092;-1.640;2023-06-22T04:24:09;5.07;;;2.90;;
74926;SDS011;63488;48.092;-1.640;2023-06-22T04:26:35;4.63;;;2.70;;
74926;SDS011;63488;48.092;-1.640;2023-06-22T04:29:03;3.90;;;2.55;;
74926;SDS011;63488;48.092;-1.640;2023-06-22T04:31:30;3.97;;;2.65;;
74926;SDS011;63488;48.092;-1.640;2023-06-22T04:33:57;4.72;;;2.42;;
74926;SDS011;63488;48.092;-1.640;2023-06-22T04:36:22;5.45;;;2.80;;
74926;SDS011;63488;48.092;-1.640;2023-06-22T04:38:48;4.30;;;2.30;;
74926;SDS011;63488;48.092;-1.640;2023-06-22T04:41:17;4.75;;;2.70;;
74926;SDS011;63488;48.092;-1.640;2023-06-22T04:43:48;3.80;;;2.63;;
74926;SDS011;63488;48.092;-1.640;2023-06-22T04:46:19;3.35;;;2.50;;
74926;SDS011;63488;48.092;-1.640;2023-06-22T04:48:44;3.95;;;2.40;;
74926;SDS011;63488;48.092;-1.640;2023-06-22T04:51:09;4.85;;;2.78;;
74926;SDS011;63488;48.092;-1.640;2023-06-22T04:53:35;4.63;;;2.75;;
74926;SDS011;63488;48.092;-1.640;2023-06-22T04:56:01;4.55;;;2.53;;
74926;SDS011;63488;48.092;-1.640;2023-06-22T04:58:29;3.30;;;2.65;;
74926;SDS011;63488;48.092;-1.640;2023-06-22T05:00:57;5.47;;;2.70;;
74926;SDS011;63488;48.092;-1.640;2023-06-22T05:03:24;5.93;;;2.40;;
74926;SDS011;63488;48.092;-1.640;2023-06-22T05:05:51;5.40;;;2.65;;
74926;SDS011;63488;48.092;-1.640;2023-06-22T05:08:16;7.35;;;2.50;;
74926;SDS011;63488;48.092;-1.640;2023-06-22T05:10:41;4.95;;;2.70;;
74926;SDS011;63488;48.092;-1.640;2023-06-22T05:13:07;4.28;;;2.45;;
74926;SDS011;63488;48.092;-1.640;2023-06-22T05:15:32;5.38;;;2.80;;
74926;SDS011;63488;48.092;-1.640;2023-06-22T05:18:02;6.00;;;2.95;;
74926;SDS011;63488;48.092;-1.640;2023-06-22T05:20:30;5.28;;;3.03;;
74926;SDS011;63488;48.092;-1.640;2023-06-22T05:22:55;4.30;;;2.78;;
74926;SDS011;63488;48.092;-1.640;2023-06-22T05:25:21;4.55;;;3.08;;
74926;SDS011;63488;48.092;-1.640;2023-06-22T05:27:46;5.80;;;3.25;;
74926;SDS011;63488;48.092;-1.640;2023-06-22T05:30:11;5.53;;;3.30;;
74926;SDS011;63488;48.092;-1.640;2023-06-22T05:32:37;5.78;;;2.92;;
74926;SDS011;63488;48.092;-1.640;2023-06-22T05:35:03;6.13;;;3.03;;
74926;SDS011;63488;48.092;-1.640;2023-06-22T05:37:28;4.70;;;3.25;;
74926;SDS011;63488;48.092;-1.640;2023-06-22T05:39:54;5.63;;;3.22;;
74926;SDS011;63488;48.092;-1.640;2023-06-22T05:42:20;5.43;;;3.17;;
74926;SDS011;63488;48.092;-1.640;2023-06-22T05:44:45;5.07;;;3.05;;
74926;SDS011;63488;48.092;-1.640;2023-06-22T05:47:12;4.95;;;3.22;;
74926;SDS011;63488;48.092;-1.640;2023-06-22T05:49:37;4.80;;;3.03;;
74926;SDS011;63488;48.092;-1.640;2023-06-22T05:52:03;4.25;;;2.70;;
74926;SDS011;63488;48.092;-1.640;2023-06-22T05:54:28;5.35;;;3.17;;
74926;SDS011;63488;48.092;-1.640;2023-06-22T05:56:54;5.22;;;3.03;;
74926;SDS011;63488;48.092;-1.640;2023-06-22T05:59:19;7.93;;;3.17;;
74926;SDS011;63488;48.092;-1.640;2023-06-22T06:01:44;4.43;;;2.45;;
74926;SDS011;63488;48.092;-1.640;2023-06-22T06:04:15;4.68;;;2.83;;
74926;SDS011;63488;48.092;-1.640;2023-06-22T06:06:40;4.18;;;2.40;;
74926;SDS011;63488;48.092;-1.640;2023-06-22T06:09:06;5.22;;;2.60;;
74926;SDS011;63488;48.092;-1.640;2023-06-22T06:11:32;4.25;;;2.92;;
74926;SDS011;63488;48.092;-1.640;2023-06-22T06:13:58;4.25;;;2.55;;
74926;SDS011;63488;48.092;-1.640;2023-06-22T06:16:23;3.92;;;2.38;;
74926;SDS011;63488;48.092;-1.640;2023-06-22T06:18:49;3.20;;;2.50;;
74926;SDS011;63488;48.092;-1.640;2023-06-22T06:21:15;6.18;;;2.80;;
74926;SDS011;63488;48.092;-1.640;2023-06-22T06:23:41;5.75;;;2.65;;
74926;SDS011;63488;48.092;-1.640;2023-06-22T06:26:07;4.53;;;2.60;;
74926;SDS011;63488;48.092;-1.640;2023-06-22T06:28:32;3.17;;;2.50;;
74926;SDS011;63488;48.092;-1.640;2023-06-22T06:30:58;3.88;;;2.20;;
74926;SDS011;63488;48.092;-1.640;2023-06-22T06:33:24;7.57;;;2.65;;
74926;SDS011;63488;48.092;-1.640;2023-06-22T06:35:49;4.32;;;2.70;;
74926;SDS011;63488;48.092;-1.640;2023-06-22T06:38:14;5.32;;;2.63;;
74926;SDS011;63488;48.092;-1.640;2023-06-22T06:40:40;5.68;;;2.60;;
74926;SDS011;63488;48.092;-1.640;2023-06-22T06:43:06;6.15;;;2.80;;
74926;SDS011;63488;48.092;-1.640;2023-06-22T06:45:31;3.88;;;2.60;;
74926;SDS011;63488;48.092;-1.640;2023-06-22T06:47:58;4.78;;;2.58;;
74926;SDS011;63488;48.092;-1.640;2023-06-22T06:50:23;5.50;;;2.53;;
74926;SDS011;63488;48.092;-1.640;2023-06-22T06:52:49;4.05;;;2.63;;
74926;SDS011;63488;48.092;-1.640;2023-06-22T06:55:15;6.35;;;3.15;;
74926;SDS011;63488;48.092;-1.640;2023-06-22T06:57:41;5.38;;;2.80;;
74926;SDS011;63488;48.092;-1.640;2023-06-22T07:00:07;5.53;;;2.53;;
74926;SDS011;63488;48.092;-1.640;2023-06-22T07:02:40;7.45;;;2.70;;
74926;SDS011;63488;48.092;-1.640;2023-06-22T07:05:06;5.55;;;2.85;;
74926;SDS011;63488;48.092;-1.640;2023-06-22T07:07:32;6.60;;;2.65;;
74926;SDS011;63488;48.092;-1.640;2023-06-22T07:09:57;5.03;;;2.83;;
74926;SDS011;63488;48.092;-1.640;2023-06-22T07:12:22;6.10;;;2.30;;
74926;SDS011;63488;48.092;-1.640;2023-06-22T07:14:48;3.53;;;2.42;;
74926;SDS011;63488;48.092;-1.640;2023-06-22T07:17:16;5.13;;;2.70;;
74926;SDS011;63488;48.092;-1.640;2023-06-22T07:19:42;5.65;;;2.40;;
74926;SDS011;63488;48.092;-1.640;2023-06-22T07:22:08;4.45;;;2.30;;
74926;SDS011;63488;48.092;-1.640;2023-06-22T07:24:33;4.50;;;2.40;;
74926;SDS011;63488;48.092;-1.640;2023-06-22T07:26:58;4.78;;;2.40;;
74926;SDS011;63488;48.092;-1.640;2023-06-22T07:29:24;5.45;;;2.65;;
74926;SDS011;63488;48.092;-1.640;2023-06-22T07:31:50;4.55;;;2.60;;
74926;SDS011;63488;48.092;-1.640;2023-06-22T07:34:16;4.60;;;2.45;;
74926;SDS011;63488;48.092;-1.640;2023-06-22T07:36:41;4.25;;;2.58;;
74926;SDS011;63488;48.092;-1.640;2023-06-22T07:39:07;4.95;;;2.80;;
74926;SDS011;63488;48.092;-1.640;2023-06-22T07:41:33;3.08;;;2.30;;
74926;SDS011;63488;48.092;-1.640;2023-06-22T07:43:59;4.22;;;2.50;;
74926;SDS011;63488;48.092;-1.640;2023-06-22T07:46:24;4.63;;;2.20;;
74926;SDS011;63488;48.092;-1.640;2023-06-22T07:48:50;5.70;;;2.40;;
74926;SDS011;63488;48.092;-1.640;2023-06-22T07:51:15;4.03;;;2.38;;
74926;SDS011;63488;48.092;-1.640;2023-06-22T07:53:41;3.72;;;2.45;;
74926;SDS011;63488;48.092;-1.640;2023-06-22T07:56:12;5.18;;;2.60;;
74926;SDS011;63488;48.092;-1.640;2023-06-22T07:58:45;4.32;;;2.53;;
74926;SDS011;63488;48.092;-1.640;2023-06-22T08:01:13;3.65;;;2.83;;
74926;SDS011;63488;48.092;-1.640;2023-06-22T08:03:38;5.97;;;3.05;;
74926;SDS011;63488;48.092;-1.640;2023-06-22T08:06:04;6.55;;;2.70;;
74926;SDS011;63488;48.092;-1.640;2023-06-22T08:08:30;5.78;;;2.80;;
74926;SDS011;63488;48.092;-1.640;2023-06-22T08:10:56;6.47;;;2.55;;
74926;SDS011;63488;48.092;-1.640;2023-06-22T08:13:21;5.95;;;2.90;;
74926;SDS011;63488;48.092;-1.640;2023-06-22T08:15:47;4.93;;;2.60;;
74926;SDS011;63488;48.092;-1.640;2023-06-22T08:18:12;8.02;;;2.50;;
74926;SDS011;63488;48.092;-1.640;2023-06-22T08:20:38;4.03;;;2.30;;
74926;SDS011;63488;48.092;-1.640;2023-06-22T08:23:03;4.90;;;2.60;;
74926;SDS011;63488;48.092;-1.640;2023-06-22T08:25:32;4.28;;;2.58;;
74926;SDS011;63488;48.092;-1.640;2023-06-22T08:27:58;3.80;;;2.20;;
74926;SDS011;63488;48.092;-1.640;2023-06-22T08:30:23;4.07;;;2.55;;
74926;SDS011;63488;48.092;-1.640;2023-06-22T08:32:49;3.10;;;2.20;;
74926;SDS011;63488;48.092;-1.640;2023-06-22T08:35:15;4.43;;;2.30;;
74926;SDS011;63488;48.092;-1.640;2023-06-22T08:37:41;6.45;;;2.58;;
74926;SDS011;63488;48.092;-1.640;2023-06-22T08:40:07;4.07;;;2.30;;
74926;SDS011;63488;48.092;-1.640;2023-06-22T08:42:33;4.93;;;2.10;;
74926;SDS011;63488;48.092;-1.640;2023-06-22T08:44:59;4.55;;;2.38;;
74926;SDS011;63488;48.092;-1.640;2023-06-22T08:47:28;3.40;;;2.03;;
74926;SDS011;63488;48.092;-1.640;2023-06-22T08:49:54;4.70;;;1.95;;
74926;SDS011;63488;48.092;-1.640;2023-06-22T08:52:19;4.15;;;2.33;;
74926;SDS011;63488;48.092;-1.640;2023-06-22T08:54:45;4.28;;;2.42;;
74926;SDS011;63488;48.092;-1.640;2023-06-22T08:57:10;2.63;;;2.05;;
74926;SDS011;63488;48.092;-1.640;2023-06-22T08:59:36;4.90;;;2.42;;
74926;SDS011;63488;48.092;-1.640;2023-06-22T09:02:01;3.67;;;2.30;;
74926;SDS011;63488;48.092;-1.640;2023-06-22T09:04:26;4.78;;;2.28;;
74926;SDS011;63488;48.092;-1.640;2023-06-22T09:06:52;3.83;;;2.45;;
74926;SDS011;63488;48.092;-1.640;2023-06-22T09:09:17;3.30;;;2.10;;
74926;SDS011;63488;48.092;-1.640;2023-06-22T09:11:43;7.03;;;2.38;;
74926;SDS011;63488;48.092;-1.640;2023-06-22T09:14:08;5.35;;;2.55;;
74926;SDS011;63488;48.092;-1.640;2023-06-22T09:16:34;4.07;;;2.20;;
74926;SDS011;63488;48.092;-1.640;2023-06-22T09:18:59;4.45;;;2.50;;
74926;SDS011;63488;48.092;-1.640;2023-06-22T09:21:25;4.45;;;2.08;;
74926;SDS011;63488;48.092;-1.640;2023-06-22T09:23:50;4.28;;;2.47;;
74926;SDS011;63488;48.092;-1.640;2023-06-22T09:26:19;5.95;;;2.15;;
74926;SDS011;63488;48.092;-1.640;2023-06-22T09:28:44;4.07;;;2.40;;
74926;SDS011;63488;48.092;-1.640;2023-06-22T09:31:10;5.85;;;2.55;;
74926;SDS011;63488;48.092;-1.640;2023-06-22T09:33:36;4.63;;;2.08;;
74926;SDS011;63488;48.092;-1.640;2023-06-22T09:36:03;4.60;;;2.10;;
74926;SDS011;63488;48.092;-1.640;2023-06-22T09:38:29;4.82;;;2.40;;
74926;SDS011;63488;48.092;-1.640;2023-06-22T09:40:54;5.32;;;2.45;;
74926;SDS011;63488;48.092;-1.640;2023-06-22T09:43:19;6.68;;;2.40;;
74926;SDS011;63488;48.092;-1.640;2023-06-22T09:45:45;3.15;;;2.25;;
74926;SDS011;63488;48.092;-1.640;2023-06-22T09:48:10;3.42;;;2.35;;
74926;SDS011;63488;48.092;-1.640;2023-06-22T09:50:35;4.50;;;2.30;;
74926;SDS011;63488;48.092;-1.640;2023-06-22T09:53:02;3.78;;;2.30;;
74926;SDS011;63488;48.092;-1.640;2023-06-22T09:55:27;4.32;;;2.50;;
74926;SDS011;63488;48.092;-1.640;2023-06-22T09:57:53;3.95;;;2.15;;
74926;SDS011;63488;48.092;-1.640;2023-06-22T10:00:19;4.07;;;2.35;;
74926;SDS011;63488;48.092;-1.640;2023-06-22T10:02:46;3.15;;;2.15;;
74926;SDS011;63488;48.092;-1.640;2023-06-22T10:05:12;4.03;;;2.17;;
74926;SDS011;63488;48.092;-1.640;2023-06-22T10:07:37;4.05;;;2.22;;
74926;SDS011;63488;48.092;-1.640;2023-06-22T10:12:32;3.53;;;2.20;;
74926;SDS011;63488;48.092;-1.640;2023-06-22T10:14:57;5.03;;;2.65;;
74926;SDS011;63488;48.092;-1.640;2023-06-22T10:17:23;3.58;;;2.30;;
74926;SDS011;63488;48.092;-1.640;2023-06-22T10:19:49;4.25;;;2.17;;
74926;SDS011;63488;48.092;-1.640;2023-06-22T10:22:15;4.70;;;2.50;;
74926;SDS011;63488;48.092;-1.640;2023-06-22T10:24:40;6.05;;;4.18;;
74926;SDS011;63488;48.092;-1.640;2023-06-22T10:27:10;4.22;;;2.55;;
74926;SDS011;63488;48.092;-1.640;2023-06-22T10:29:35;3.58;;;2.50;;
74926;SDS011;63488;48.092;-1.640;2023-06-22T10:32:00;3.67;;;2.45;;
74926;SDS011;63488;48.092;-1.640;2023-06-22T10:34:26;6.10;;;2.65;;
74926;SDS011;63488;48.092;-1.640;2023-06-22T10:36:51;3.38;;;2.50;;
74926;SDS011;63488;48.092;-1.640;2023-06-22T10:39:17;3.92;;;2.22;;
74926;SDS011;63488;48.092;-1.640;2023-06-22T10:41:42;5.80;;;2.42;;
74926;SDS011;63488;48.092;-1.640;2023-06-22T10:44:08;3.67;;;1.88;;
74926;SDS011;63488;48.092;-1.640;2023-06-22T10:46:33;4.07;;;2.88;;
74926;SDS011;63488;48.092;-1.640;2023-06-22T10:48:59;3.38;;;2.30;;
74926;SDS011;63488;48.092;-1.640;2023-06-22T10:51:24;4.78;;;2.65;;
74926;SDS011;63488;48.092;-1.640;2023-06-22T10:53:50;3.65;;;2.28;;
74926;SDS011;63488;48.092;-1.640;2023-06-22T10:56:16;4.22;;;2.30;;
74926;SDS011;63488;48.092;-1.640;2023-06-22T10:58:41;4.40;;;2.63;;
74926;SDS011;63488;48.092;-1.640;2023-06-22T11:01:07;3.83;;;2.28;;
74926;SDS011;63488;48.092;-1.640;2023-06-22T11:03:32;3.80;;;2.45;;
74926;SDS011;63488;48.092;-1.640;2023-06-22T11:05:57;2.72;;;1.95;;
74926;SDS011;63488;48.092;-1.640;2023-06-22T11:08:23;4.88;;;2.50;;
74926;SDS011;63488;48.092;-1.640;2023-06-22T11:10:48;3.95;;;2.40;;
74926;SDS011;63488;48.092;-1.640;2023-06-22T11:13:13;4.63;;;2.40;;
74926;SDS011;63488;48.092;-1.640;2023-06-22T11:15:39;3.15;;;2.10;;
74926;SDS011;63488;48.092;-1.640;2023-06-22T11:18:05;3.65;;;1.98;;
74926;SDS011;63488;48.092;-1.640;2023-06-22T11:20:32;4.03;;;2.40;;
74926;SDS011;63488;48.092;-1.640;2023-06-22T11:22:59;3.88;;;2.30;;
74926;SDS011;63488;48.092;-1.640;2023-06-22T11:25:25;3.10;;;2.22;;
74926;SDS011;63488;48.092;-1.640;2023-06-22T11:27:51;3.72;;;2.45;;
74926;SDS011;63488;48.092;-1.640;2023-06-22T11:30:18;4.07;;;2.45;;
74926;SDS011;63488;48.092;-1.640;2023-06-22T11:32:43;5.47;;;2.20;;
74926;SDS011;63488;48.092;-1.640;2023-06-22T11:35:08;4.28;;;2.78;;
74926;SDS011;63488;48.092;-1.640;2023-06-22T11:37:34;4.53;;;2.60;;
74926;SDS011;63488;48.092;-1.640;2023-06-22T11:39:59;3.95;;;2.50;;
74926;SDS011;63488;48.092;-1.640;2023-06-22T11:42:25;5.22;;;2.35;;
74926;SDS011;63488;48.092;-1.640;2023-06-22T11:44:50;2.80;;;2.22;;
74926;SDS011;63488;48.092;-1.640;2023-06-22T11:47:15;3.40;;;2.45;;
74926;SDS011;63488;48.092;-1.640;2023-06-22T11:49:41;4.68;;;2.55;;
74926;SDS011;63488;48.092;-1.640;2023-06-22T11:52:06;4.40;;;2.55;;
74926;SDS011;63488;48.092;-1.640;2023-06-22T11:54:32;3.47;;;2.20;;
74926;SDS011;63488;48.092;-1.640;2023-06-22T11:56:58;5.25;;;2.65;;
74926;SDS011;63488;48.092;-1.640;2023-06-22T11:59:23;3.97;;;2.35;;
74926;SDS011;63488;48.092;-1.640;2023-06-22T12:01:48;4.60;;;2.10;;
74926;SDS011;63488;48.092;-1.640;2023-06-22T12:04:16;4.18;;;2.35;;
74926;SDS011;63488;48.092;-1.640;2023-06-22T12:06:41;3.92;;;2.33;;
74926;SDS011;63488;48.092;-1.640;2023-06-22T12:09:08;4.35;;;2.22;;
74926;SDS011;63488;48.092;-1.640;2023-06-22T12:11:34;2.92;;;2.40;;
74926;SDS011;63488;48.092;-1.640;2023-06-22T12:13:59;3.47;;;2.08;;
74926;SDS011;63488;48.092;-1.640;2023-06-22T12:16:27;3.00;;;2.53;;
74926;SDS011;63488;48.092;-1.640;2023-06-22T12:18:52;5.80;;;2.53;;
74926;SDS011;63488;48.092;-1.640;2023-06-22T12:21:18;4.22;;;2.28;;
74926;SDS011;63488;48.092;-1.640;2023-06-22T12:23:44;5.25;;;2.08;;
74926;SDS011;63488;48.092;-1.640;2023-06-22T12:26:11;4.68;;;2.60;;
74926;SDS011;63488;48.092;-1.640;2023-06-22T12:28:36;4.65;;;2.03;;
74926;SDS011;63488;48.092;-1.640;2023-06-22T12:31:02;3.53;;;2.38;;
74926;SDS011;63488;48.092;-1.640;2023-06-22T12:33:29;3.63;;;2.13;;
74926;SDS011;63488;48.092;-1.640;2023-06-22T12:35:55;4.30;;;2.53;;
74926;SDS011;63488;48.092;-1.640;2023-06-22T12:38:21;3.78;;;2.20;;
74926;SDS011;63488;48.092;-1.640;2023-06-22T12:40:46;4.80;;;2.47;;
74926;SDS011;63488;48.092;-1.640;2023-06-22T12:43:12;4.78;;;2.45;;
74926;SDS011;63488;48.092;-1.640;2023-06-22T12:45:37;3.67;;;2.50;;
74926;SDS011;63488;48.092;-1.640;2023-06-22T12:48:03;4.20;;;2.45;;
74926;SDS011;63488;48.092;-1.640;2023-06-22T12:50:28;4.72;;;2.50;;
74926;SDS011;63488;48.092;-1.640;2023-06-22T12:52:54;5.07;;;2.50;;
74926;SDS011;63488;48.092;-1.640;2023-06-22T12:55:19;4.50;;;2.60;;
74926;SDS011;63488;48.092;-1.640;2023-06-22T12:57:44;6.57;;;3.28;;
74926;SDS011;63488;48.092;-1.640;2023-06-22T13:00:10;5.20;;;2.80;;
74926;SDS011;63488;48.092;-1.640;2023-06-22T13:02:36;3.97;;;2.80;;
74926;SDS011;63488;48.092;-1.640;2023-06-22T13:05:02;5.65;;;2.90;;
74926;SDS011;63488;48.092;-1.640;2023-06-22T13:07:27;4.18;;;2.55;;
74926;SDS011;63488;48.092;-1.640;2023-06-22T13:09:53;4.85;;;2.90;;
74926;SDS011;63488;48.092;-1.640;2023-06-22T13:12:22;3.47;;;2.40;;
74926;SDS011;63488;48.092;-1.640;2023-06-22T13:14:47;3.88;;;2.60;;
74926;SDS011;63488;48.092;-1.640;2023-06-22T13:17:13;5.30;;;2.80;;
74926;SDS011;63488;48.092;-1.640;2023-06-22T13:19:39;6.10;;;2.83;;
74926;SDS011;63488;48.092;-1.640;2023-06-22T13:22:04;3.72;;;2.40;;
74926;SDS011;63488;48.092;-1.640;2023-06-22T13:24:30;3.60;;;2.70;;
74926;SDS011;63488;48.092;-1.640;2023-06-22T13:26:56;3.10;;;2.47;;
74926;SDS011;63488;48.092;-1.640;2023-06-22T13:29:21;4.55;;;2.72;;
74926;SDS011;63488;48.092;-1.640;2023-06-22T13:31:46;3.83;;;2.65;;
74926;SDS011;63488;48.092;-1.640;2023-06-22T13:34:12;4.25;;;2.67;;
74926;SDS011;63488;48.092;-1.640;2023-06-22T13:36:37;4.63;;;2.78;;
74926;SDS011;63488;48.092;-1.640;2023-06-22T13:39:03;4.28;;;2.88;;
74926;SDS011;63488;48.092;-1.640;2023-06-22T13:41:28;3.53;;;2.40;;
74926;SDS011;63488;48.092;-1.640;2023-06-22T13:43:54;3.80;;;2.45;;
74926;SDS011;63488;48.092;-1.640;2023-06-22T13:46:19;5.47;;;2.78;;
74926;SDS011;63488;48.092;-1.640;2023-06-22T13:48:45;5.50;;;2.60;;
74926;SDS011;63488;48.092;-1.640;2023-06-22T13:51:10;3.78;;;2.20;;
74926;SDS011;63488;48.092;-1.640;2023-06-22T13:53:35;4.38;;;2.53;;
74926;SDS011;63488;48.092;-1.640;2023-06-22T13:56:01;2.42;;;2.10;;
74926;SDS011;63488;48.092;-1.640;2023-06-22T13:58:26;5.00;;;2.13;;
74926;SDS011;63488;48.092;-1.640;2023-06-22T14:00:52;3.25;;;2.22;;
74926;SDS011;63488;48.092;-1.640;2023-06-22T14:03:17;3.08;;;2.10;;
74926;SDS011;63488;48.092;-1.640;2023-06-22T14:05:42;5.47;;;2.15;;
74926;SDS011;63488;48.092;-1.640;2023-06-22T14:08:08;4.10;;;1.92;;
74926;SDS011;63488;48.092;-1.640;2023-06-22T14:10:34;4.63;;;2.28;;
74926;SDS011;63488;48.092;-1.640;2023-06-22T14:12:59;5.20;;;2.17;;
74926;SDS011;63488;48.092;-1.640;2023-06-22T14:15:25;2.13;;;1.90;;
74926;SDS011;63488;48.092;-1.640;2023-06-22T14:17:50;5.25;;;2.20;;
74926;SDS011;63488;48.092;-1.640;2023-06-22T14:20:16;4.40;;;2.05;;
74926;SDS011;63488;48.092;-1.640;2023-06-22T14:22:41;3.28;;;1.83;;
74926;SDS011;63488;48.092;-1.640;2023-06-22T14:25:07;2.92;;;2.00;;
74926;SDS011;63488;48.092;-1.640;2023-06-22T14:27:33;3.50;;;2.03;;
74926;SDS011;63488;48.092;-1.640;2023-06-22T14:29:58;4.18;;;2.13;;
74926;SDS011;63488;48.092;-1.640;2023-06-22T14:32:24;3.95;;;2.00;;
74926;SDS011;63488;48.092;-1.640;2023-06-22T14:34:50;2.65;;;1.75;;
74926;SDS011;63488;48.092;-1.640;2023-06-22T14:37:15;2.42;;;1.80;;